sensor_id;sensor_type;location;lat;lon;timestamp;pressure;altitude;pressure_sealevel;temperature;humidity
25759;BME280;13604;52.496;13.456;2022-07-05T00:00:12;101507.41;;;15.71;83.33
25759;BME280;13604;52.496;13.456;2022-07-05T00:02:38;101506.28;;;15.62;83.28
25759;BME280;13604;52.496;13.456;2022-07-05T00:05:03;101501.47;;;15.56;83.19
25759;BME280;13604;52.496;13.456;2022-07-05T00:07:28;101508.06;;;15.49;83.44
25759;BME280;13604;52.496;13.456;2022-07-05T00:09:55;101499.22;;;15.50;84.68
25759;BME280;13604;52.496;13.456;2022-07-05T00:12:23;101497.88;;;15.44;84.53
25759;BME280;13604;52.496;13.456;2022-07-05T00:14:50;101500.91;;;15.38;84.99
25759;BME280;13604;52.496;13.456;2022-07-05T00:17:15;101501.34;;;15.32;85.35
25759;BME280;13604;52.496;13.456;2022-07-05T00:19:41;101506.59;;;15.32;86.22
25759;BME280;13604;52.496;13.456;2022-07-05T00:22:07;101497.03;;;15.31;87.09
25759;BME280;13604;52.496;13.456;2022-07-05T00:24:32;101503.03;;;15.33;86.68
25759;BME280;13604;52.496;13.456;2022-07-05T00:26:58;101502.28;;;15.31;86.67
25759;BME280;13604;52.496;13.456;2022-07-05T00:29:23;101510.81;;;15.35;86.61
25759;BME280;13604;52.496;13.456;2022-07-05T00:31:49;101509.22;;;15.32;86.07
25759;BME280;13604;52.496;13.456;2022-07-05T00:34:14;101513.31;;;15.36;100.00
25759;BME280;13604;52.496;13.456;2022-07-05T00:36:40;101513.84;;;15.41;86.67
25759;BME280;13604;52.496;13.456;2022-07-05T00:39:06;101506.59;;;15.45;86.30
25759;BME280;13604;52.496;13.456;2022-07-05T00:41:32;101514.03;;;15.51;85.75
25759;BME280;13604;52.496;13.456;2022-07-05T00:44:00;101520.22;;;15.50;84.80
25759;BME280;13604;52.496;13.456;2022-07-05T00:46:26;101517.00;;;15.59;83.46
25759;BME280;13604;52.496;13.456;2022-07-05T00:48:52;101519.72;;;15.70;81.92
25759;BME280;13604;52.496;13.456;2022-07-05T00:51:18;101527.38;;;15.73;81.89
25759;BME280;13604;52.496;13.456;2022-07-05T00:53:43;101529.38;;;15.70;82.50
25759;BME280;13604;52.496;13.456;2022-07-05T00:56:10;101529.81;;;15.63;82.20
25759;BME280;13604;52.496;13.456;2022-07-05T00:58:35;101529.28;;;15.58;82.23
25759;BME280;13604;52.496;13.456;2022-07-05T01:01:02;101531.19;;;15.56;82.13
25759;BME280;13604;52.496;13.456;2022-07-05T01:03:28;101525.47;;;15.50;81.88
25759;BME280;13604;52.496;13.456;2022-07-05T01:05:55;101523.81;;;15.49;81.60
25759;BME280;13604;52.496;13.456;2022-07-05T01:08:22;101522.44;;;15.43;82.30
25759;BME280;13604;52.496;13.456;2022-07-05T01:10:49;101540.28;;;15.38;82.42
25759;BME280;13604;52.496;13.456;2022-07-05T01:13:15;101531.06;;;15.33;82.66
25759;BME280;13604;52.496;13.456;2022-07-05T01:15:40;101535.03;;;15.25;83.48
25759;BME280;13604;52.496;13.456;2022-07-05T01:18:07;101529.47;;;15.30;84.13
25759;BME280;13604;52.496;13.456;2022-07-05T01:20:33;101536.91;;;15.36;84.57
25759;BME280;13604;52.496;13.456;2022-07-05T01:22:59;101527.25;;;15.37;84.77
25759;BME280;13604;52.496;13.456;2022-07-05T01:25:27;101543.00;;;15.37;84.49
25759;BME280;13604;52.496;13.456;2022-07-05T01:27:53;101535.03;;;15.38;84.70
25759;BME280;13604;52.496;13.456;2022-07-05T01:30:19;101538.00;;;15.34;84.56
25759;BME280;13604;52.496;13.456;2022-07-05T01:32:45;101537.16;;;15.33;84.69
25759;BME280;13604;52.496;13.456;2022-07-05T01:35:12;101536.50;;;15.29;85.03
25759;BME280;13604;52.496;13.456;2022-07-05T01:37:37;101538.09;;;15.32;85.57
25759;BME280;13604;52.496;13.456;2022-07-05T01:40:04;101545.97;;;15.32;85.94
25759;BME280;13604;52.496;13.456;2022-07-05T01:42:29;101537.16;;;15.58;82.21
25759;BME280;13604;52.496;13.456;2022-07-05T01:44:55;101539.78;;;15.71;81.01
25759;BME280;13604;52.496;13.456;2022-07-05T01:47:20;101521.91;;;15.89;79.28
25759;BME280;13604;52.496;13.456;2022-07-05T01:49:46;101526.94;;;16.16;77.26
25759;BME280;13604;52.496;13.456;2022-07-05T01:52:13;101527.22;;;16.24;76.98
25759;BME280;13604;52.496;13.456;2022-07-05T01:54:41;101532.28;;;16.27;76.80
25759;BME280;13604;52.496;13.456;2022-07-05T01:57:07;101525.59;;;16.23;77.98
25759;BME280;13604;52.496;13.456;2022-07-05T01:59:33;101519.03;;;16.28;76.92
25759;BME280;13604;52.496;13.456;2022-07-05T02:01:59;101522.50;;;16.29;77.74
25759;BME280;13604;52.496;13.456;2022-07-05T02:04:25;101520.81;;;16.28;77.52
25759;BME280;13604;52.496;13.456;2022-07-05T02:06:51;101523.78;;;16.23;78.04
25759;BME280;13604;52.496;13.456;2022-07-05T02:09:16;101518.13;;;16.17;78.44
25759;BME280;13604;52.496;13.456;2022-07-05T02:11:41;101521.28;;;16.22;78.38
25759;BME280;13604;52.496;13.456;2022-07-05T02:14:07;101513.59;;;16.19;79.14
25759;BME280;13604;52.496;13.456;2022-07-05T02:16:32;101518.34;;;16.14;79.43
25759;BME280;13604;52.496;13.456;2022-07-05T02:18:57;101523.09;;;16.09;79.42
25759;BME280;13604;52.496;13.456;2022-07-05T02:21:23;101514.38;;;16.08;79.76
25759;BME280;13604;52.496;13.456;2022-07-05T02:23:49;101525.44;;;16.00;80.48
25759;BME280;13604;52.496;13.456;2022-07-05T02:26:14;101521.41;;;16.08;80.49
25759;BME280;13604;52.496;13.456;2022-07-05T02:28:39;101530.78;;;16.12;80.61
25759;BME280;13604;52.496;13.456;2022-07-05T02:31:05;101526.56;;;16.09;80.87
25759;BME280;13604;52.496;13.456;2022-07-05T02:33:30;101528.66;;;16.04;81.87
25759;BME280;13604;52.496;13.456;2022-07-05T02:35:55;101531.31;;;16.04;82.55
25759;BME280;13604;52.496;13.456;2022-07-05T02:38:21;101530.34;;;16.05;82.90
25759;BME280;13604;52.496;13.456;2022-07-05T02:40:46;101531.31;;;16.04;83.02
25759;BME280;13604;52.496;13.456;2022-07-05T02:43:11;101529.50;;;16.05;82.97
25759;BME280;13604;52.496;13.456;2022-07-05T02:45:37;101531.75;;;15.98;83.63
25759;BME280;13604;52.496;13.456;2022-07-05T02:48:02;101530.56;;;16.02;83.91
25759;BME280;13604;52.496;13.456;2022-07-05T02:50:27;101542.16;;;15.99;84.22
25759;BME280;13604;52.496;13.456;2022-07-05T02:52:53;101532.50;;;15.87;84.85
25759;BME280;13604;52.496;13.456;2022-07-05T02:55:18;101534.09;;;15.90;85.35
25759;BME280;13604;52.496;13.456;2022-07-05T02:57:43;101537.34;;;15.81;86.50
25759;BME280;13604;52.496;13.456;2022-07-05T03:00:09;101538.91;;;15.83;86.91
25759;BME280;13604;52.496;13.456;2022-07-05T03:02:35;101540.81;;;15.81;87.22
25759;BME280;13604;52.496;13.456;2022-07-05T03:05:00;101528.75;;;15.79;87.28
25759;BME280;13604;52.496;13.456;2022-07-05T03:07:25;101548.94;;;15.78;87.89
25759;BME280;13604;52.496;13.456;2022-07-05T03:09:51;101547.66;;;15.71;88.21
25759;BME280;13604;52.496;13.456;2022-07-05T03:12:16;101544.09;;;15.72;88.36
25759;BME280;13604;52.496;13.456;2022-07-05T03:14:41;101548.94;;;15.78;88.62
25759;BME280;13604;52.496;13.456;2022-07-05T03:17:07;101551.94;;;15.85;88.20
25759;BME280;13604;52.496;13.456;2022-07-05T03:19:32;101553.63;;;15.86;88.52
25759;BME280;13604;52.496;13.456;2022-07-05T03:21:58;101561.50;;;15.86;88.37
25759;BME280;13604;52.496;13.456;2022-07-05T03:24:23;101560.38;;;15.77;88.96
25759;BME280;13604;52.496;13.456;2022-07-05T03:26:48;101555.31;;;15.74;89.69
25759;BME280;13604;52.496;13.456;2022-07-05T03:29:13;101554.38;;;15.75;90.21
25759;BME280;13604;52.496;13.456;2022-07-05T03:31:39;101559.63;;;15.75;90.68
25759;BME280;13604;52.496;13.456;2022-07-05T03:34:04;101559.53;;;15.77;91.20
25759;BME280;13604;52.496;13.456;2022-07-05T03:36:29;101563.31;;;15.73;91.30
25759;BME280;13604;52.496;13.456;2022-07-05T03:38:55;101568.34;;;15.63;92.14
25759;BME280;13604;52.496;13.456;2022-07-05T03:41:21;101558.69;;;15.63;92.52
25759;BME280;13604;52.496;13.456;2022-07-05T03:43:46;101566.88;;;15.72;92.85
25759;BME280;13604;52.496;13.456;2022-07-05T03:46:11;101576.53;;;15.71;93.02
25759;BME280;13604;52.496;13.456;2022-07-05T03:48:37;101581.69;;;15.73;92.64
25759;BME280;13604;52.496;13.456;2022-07-05T03:51:02;101574.75;;;15.72;92.14
25759;BME280;13604;52.496;13.456;2022-07-05T03:53:27;101578.84;;;15.76;91.75
25759;BME280;13604;52.496;13.456;2022-07-05T03:55:52;101582.22;;;15.78;92.54
25759;BME280;13604;52.496;13.456;2022-07-05T03:58:18;101587.03;;;15.71;92.90
25759;BME280;13604;52.496;13.456;2022-07-05T04:00:43;101582.44;;;15.75;93.13
25759;BME280;13604;52.496;13.456;2022-07-05T04:03:09;101592.94;;;15.75;93.28
25759;BME280;13604;52.496;13.456;2022-07-05T04:05:34;101594.06;;;15.83;92.49
25759;BME280;13604;52.496;13.456;2022-07-05T04:07:59;101594.06;;;15.83;92.64
25759;BME280;13604;52.496;13.456;2022-07-05T04:10:25;101584.63;;;15.81;91.68
25759;BME280;13604;52.496;13.456;2022-07-05T04:12:50;101591.03;;;15.89;91.37
25759;BME280;13604;52.496;13.456;2022-07-05T04:15:15;101588.06;;;15.94;90.47
25759;BME280;13604;52.496;13.456;2022-07-05T04:17:51;101595.53;;;16.00;87.75
25759;BME280;13604;52.496;13.456;2022-07-05T04:20:17;101590.22;;;16.13;88.21
25759;BME280;13604;52.496;13.456;2022-07-05T04:22:43;101594.88;;;16.22;87.19
25759;BME280;13604;52.496;13.456;2022-07-05T04:25:09;101593.28;;;16.19;86.95
25759;BME280;13604;52.496;13.456;2022-07-05T04:27:50;101600.72;;;16.25;86.97
25759;BME280;13604;52.496;13.456;2022-07-05T04:30:16;101609.03;;;16.32;86.07
25759;BME280;13604;52.496;13.456;2022-07-05T04:32:42;101608.16;;;16.44;85.46
25759;BME280;13604;52.496;13.456;2022-07-05T04:35:08;101610.44;;;16.49;84.02
25759;BME280;13604;52.496;13.456;2022-07-05T04:37:34;101605.25;;;16.60;81.96
25759;BME280;13604;52.496;13.456;2022-07-05T04:39:59;101606.06;;;16.60;80.54
25759;BME280;13604;52.496;13.456;2022-07-05T04:42:25;101610.59;;;16.71;79.27
25759;BME280;13604;52.496;13.456;2022-07-05T04:44:50;101610.84;;;16.79;78.77
25759;BME280;13604;52.496;13.456;2022-07-05T04:47:15;101605.66;;;16.90;78.04
25759;BME280;13604;52.496;13.456;2022-07-05T04:49:41;101612.53;;;17.04;76.20
25759;BME280;13604;52.496;13.456;2022-07-05T04:52:06;101622.00;;;17.06;74.79
25759;BME280;13604;52.496;13.456;2022-07-05T04:54:31;101619.88;;;17.12;74.48
25759;BME280;13604;52.496;13.456;2022-07-05T04:56:57;101622.66;;;17.21;74.14
25759;BME280;13604;52.496;13.456;2022-07-05T04:59:22;101627.81;;;17.23;74.12
25759;BME280;13604;52.496;13.456;2022-07-05T05:01:47;101637.53;;;17.33;74.61
25759;BME280;13604;52.496;13.456;2022-07-05T05:04:13;101637.06;;;17.39;73.72
25759;BME280;13604;52.496;13.456;2022-07-05T05:06:38;101647.63;;;17.51;73.67
25759;BME280;13604;52.496;13.456;2022-07-05T05:09:03;101641.41;;;17.52;73.06
25759;BME280;13604;52.496;13.456;2022-07-05T05:11:28;101651.44;;;17.58;72.65
25759;BME280;13604;52.496;13.456;2022-07-05T05:13:54;101641.06;;;17.56;72.52
25759;BME280;13604;52.496;13.456;2022-07-05T05:16:19;101643.72;;;17.67;72.36
25759;BME280;13604;52.496;13.456;2022-07-05T05:18:44;101645.66;;;17.65;72.17
25759;BME280;13604;52.496;13.456;2022-07-05T05:21:10;101639.69;;;17.74;73.03
25759;BME280;13604;52.496;13.456;2022-07-05T05:23:35;101647.59;;;17.86;72.62
25759;BME280;13604;52.496;13.456;2022-07-05T05:26:00;101648.66;;;17.94;72.33
25759;BME280;13604;52.496;13.456;2022-07-05T05:28:26;101651.31;;;18.05;72.38
25759;BME280;13604;52.496;13.456;2022-07-05T05:30:51;101661.00;;;18.16;71.59
25759;BME280;13604;52.496;13.456;2022-07-05T05:33:16;101661.00;;;18.16;70.37
25759;BME280;13604;52.496;13.456;2022-07-05T05:35:41;101660.28;;;18.25;70.86
25759;BME280;13604;52.496;13.456;2022-07-05T05:38:07;101657.06;;;18.33;70.52
25759;BME280;13604;52.496;13.456;2022-07-05T05:40:33;101667.34;;;18.47;70.17
25759;BME280;13604;52.496;13.456;2022-07-05T05:42:58;101668.66;;;18.52;69.78
25759;BME280;13604;52.496;13.456;2022-07-05T05:45:24;101672.41;;;18.61;68.60
25759;BME280;13604;52.496;13.456;2022-07-05T05:47:54;101681.38;;;18.70;68.16
25759;BME280;13604;52.496;13.456;2022-07-05T05:50:20;101677.88;;;18.69;65.93
25759;BME280;13604;52.496;13.456;2022-07-05T05:52:46;101673.94;;;18.75;65.81
25759;BME280;13604;52.496;13.456;2022-07-05T05:55:12;101677.38;;;18.86;65.48
25759;BME280;13604;52.496;13.456;2022-07-05T05:57:37;101679.16;;;18.97;65.80
25759;BME280;13604;52.496;13.456;2022-07-05T06:00:04;101683.53;;;19.08;64.29
25759;BME280;13604;52.496;13.456;2022-07-05T06:02:30;101674.28;;;19.13;63.13
25759;BME280;13604;52.496;13.456;2022-07-05T06:04:55;101682.44;;;19.21;61.52
25759;BME280;13604;52.496;13.456;2022-07-05T06:07:20;101680.34;;;19.25;62.36
25759;BME280;13604;52.496;13.456;2022-07-05T06:09:46;101694.34;;;19.37;62.97
25759;BME280;13604;52.496;13.456;2022-07-05T06:12:11;101689.97;;;19.47;62.27
25759;BME280;13604;52.496;13.456;2022-07-05T06:14:36;101697.16;;;19.56;61.66
25759;BME280;13604;52.496;13.456;2022-07-05T06:17:02;101691.25;;;19.63;61.52
25759;BME280;13604;52.496;13.456;2022-07-05T06:19:27;101698.38;;;19.73;61.14
25759;BME280;13604;52.496;13.456;2022-07-05T06:21:52;101695.94;;;19.81;61.54
25759;BME280;13604;52.496;13.456;2022-07-05T06:24:18;101691.47;;;19.81;61.05
25759;BME280;13604;52.496;13.456;2022-07-05T06:26:43;101695.47;;;19.96;60.65
25759;BME280;13604;52.496;13.456;2022-07-05T06:29:08;101700.38;;;20.11;60.01
25759;BME280;13604;52.496;13.456;2022-07-05T06:31:34;101705.16;;;20.17;59.06
25759;BME280;13604;52.496;13.456;2022-07-05T06:33:59;101700.72;;;20.17;59.56
25759;BME280;13604;52.496;13.456;2022-07-05T06:36:24;101703.41;;;20.27;59.37
25759;BME280;13604;52.496;13.456;2022-07-05T06:38:49;101703.97;;;20.30;59.82
25759;BME280;13604;52.496;13.456;2022-07-05T06:41:15;101700.44;;;20.41;59.90
25759;BME280;13604;52.496;13.456;2022-07-05T06:43:40;101698.34;;;20.45;57.74
25759;BME280;13604;52.496;13.456;2022-07-05T06:46:05;101703.38;;;20.48;57.51
25759;BME280;13604;52.496;13.456;2022-07-05T06:48:31;101700.63;;;20.59;58.41
25759;BME280;13604;52.496;13.456;2022-07-05T06:50:56;101703.16;;;20.70;58.02
25759;BME280;13604;52.496;13.456;2022-07-05T06:53:21;101709.03;;;20.83;58.46
25759;BME280;13604;52.496;13.456;2022-07-05T06:55:47;101705.41;;;20.84;56.75
25759;BME280;13604;52.496;13.456;2022-07-05T06:58:12;101712.91;;;20.69;56.13
25759;BME280;13604;52.496;13.456;2022-07-05T07:00:38;101705.06;;;20.58;57.25
25759;BME280;13604;52.496;13.456;2022-07-05T07:03:04;101708.16;;;20.63;57.25
25759;BME280;13604;52.496;13.456;2022-07-05T07:05:29;101708.47;;;20.80;57.89
25759;BME280;13604;52.496;13.456;2022-07-05T07:07:55;101709.31;;;20.80;57.07
25759;BME280;13604;52.496;13.456;2022-07-05T07:10:39;101714.78;;;20.98;57.90
25759;BME280;13604;52.496;13.456;2022-07-05T07:13:04;101715.63;;;20.98;56.37
25759;BME280;13604;52.496;13.456;2022-07-05T07:15:30;101705.00;;;20.89;56.94
25759;BME280;13604;52.496;13.456;2022-07-05T07:17:56;101703.88;;;20.91;56.36
25759;BME280;13604;52.496;13.456;2022-07-05T07:20:21;101706.25;;;20.85;56.17
25759;BME280;13604;52.496;13.456;2022-07-05T07:22:47;101703.19;;;20.89;56.53
25759;BME280;13604;52.496;13.456;2022-07-05T07:25:12;101709.63;;;21.16;57.58
25759;BME280;13604;52.496;13.456;2022-07-05T07:27:44;101707.59;;;21.29;55.95
25759;BME280;13604;52.496;13.456;2022-07-05T07:30:12;101707.69;;;21.56;55.72
25759;BME280;13604;52.496;13.456;2022-07-05T07:32:38;101705.88;;;21.66;54.81
25759;BME280;13604;52.496;13.456;2022-07-05T07:35:04;101705.69;;;21.87;55.00
25759;BME280;13604;52.496;13.456;2022-07-05T07:37:29;101702.59;;;21.92;54.31
25759;BME280;13604;52.496;13.456;2022-07-05T07:39:54;101702.19;;;21.96;53.17
25759;BME280;13604;52.496;13.456;2022-07-05T07:42:20;101705.53;;;22.08;52.21
25759;BME280;13604;52.496;13.456;2022-07-05T07:44:45;101695.41;;;22.21;52.64
25759;BME280;13604;52.496;13.456;2022-07-05T07:47:10;101694.31;;;22.14;52.29
25759;BME280;13604;52.496;13.456;2022-07-05T07:49:36;101700.06;;;22.09;51.72
25759;BME280;13604;52.496;13.456;2022-07-05T07:52:02;101698.66;;;22.15;52.37
25759;BME280;13604;52.496;13.456;2022-07-05T07:54:27;101700.53;;;22.32;52.08
25759;BME280;13604;52.496;13.456;2022-07-05T07:56:52;101700.53;;;22.32;50.39
25759;BME280;13604;52.496;13.456;2022-07-05T07:59:18;101700.81;;;22.57;50.55
25759;BME280;13604;52.496;13.456;2022-07-05T08:01:43;101695.00;;;22.53;49.10
25759;BME280;13604;52.496;13.456;2022-07-05T08:04:08;101699.94;;;22.66;49.23
25759;BME280;13604;52.496;13.456;2022-07-05T08:06:33;101705.53;;;22.90;47.36
25759;BME280;13604;52.496;13.456;2022-07-05T08:08:59;101698.75;;;23.05;46.55
25759;BME280;13604;52.496;13.456;2022-07-05T08:11:24;101700.00;;;23.37;45.49
25759;BME280;13604;52.496;13.456;2022-07-05T08:13:49;101692.56;;;23.58;42.84
25759;BME280;13604;52.496;13.456;2022-07-05T08:16:15;101686.56;;;24.08;43.56
25759;BME280;13604;52.496;13.456;2022-07-05T08:18:40;101690.81;;;24.68;41.59
25759;BME280;13604;52.496;13.456;2022-07-05T08:21:24;101699.91;;;25.08;40.37
25759;BME280;13604;52.496;13.456;2022-07-05T08:24:07;101699.91;;;25.08;40.37
25759;BME280;13604;52.496;13.456;2022-07-05T08:26:32;101690.97;;;26.21;37.77
25759;BME280;13604;52.496;13.456;2022-07-05T08:28:59;101689.50;;;26.58;37.39
25759;BME280;13604;52.496;13.456;2022-07-05T08:31:26;101692.34;;;27.10;36.12
25759;BME280;13604;52.496;13.456;2022-07-05T08:33:52;101682.13;;;26.91;34.70
25759;BME280;13604;52.496;13.456;2022-07-05T08:36:17;101691.28;;;26.26;36.48
25759;BME280;13604;52.496;13.456;2022-07-05T08:38:43;101689.28;;;26.67;37.14
25759;BME280;13604;52.496;13.456;2022-07-05T08:41:10;101695.38;;;27.30;35.93
25759;BME280;13604;52.496;13.456;2022-07-05T08:43:38;101686.09;;;28.07;34.46
25759;BME280;13604;52.496;13.456;2022-07-05T08:46:05;101689.81;;;27.92;33.42
25759;BME280;13604;52.496;13.456;2022-07-05T08:48:36;101686.56;;;27.81;34.57
25759;BME280;13604;52.496;13.456;2022-07-05T08:51:07;101688.81;;;27.55;34.34
25759;BME280;13604;52.496;13.456;2022-07-05T08:53:33;101681.72;;;27.25;34.04
25759;BME280;13604;52.496;13.456;2022-07-05T08:55:59;101687.03;;;27.47;34.68
25759;BME280;13604;52.496;13.456;2022-07-05T08:58:24;101681.31;;;27.88;34.24
25759;BME280;13604;52.496;13.456;2022-07-05T09:00:49;101691.56;;;27.47;34.00
25759;BME280;13604;52.496;13.456;2022-07-05T09:03:16;101680.91;;;27.76;34.36
25759;BME280;13604;52.496;13.456;2022-07-05T09:05:43;101680.81;;;28.43;34.07
25759;BME280;13604;52.496;13.456;2022-07-05T09:08:09;101675.22;;;28.95;32.40
25759;BME280;13604;52.496;13.456;2022-07-05T09:10:37;101678.94;;;28.94;31.63
25759;BME280;13604;52.496;13.456;2022-07-05T09:13:02;101678.47;;;29.55;32.15
25759;BME280;13604;52.496;13.456;2022-07-05T09:15:28;101681.63;;;29.37;32.10
25759;BME280;13604;52.496;13.456;2022-07-05T09:17:53;101674.97;;;30.23;31.84
25759;BME280;13604;52.496;13.456;2022-07-05T09:20:19;101677.28;;;31.00;29.59
25759;BME280;13604;52.496;13.456;2022-07-05T09:22:54;101678.97;;;31.47;29.32
25759;BME280;13604;52.496;13.456;2022-07-05T09:28:02;101676.94;;;30.01;29.20
25759;BME280;13604;52.496;13.456;2022-07-05T09:30:46;101662.81;;;30.40;29.32
25759;BME280;13604;52.496;13.456;2022-07-05T09:33:13;101676.81;;;30.77;28.55
25759;BME280;13604;52.496;13.456;2022-07-05T09:35:43;101669.50;;;30.03;29.30
25759;BME280;13604;52.496;13.456;2022-07-05T09:38:19;101660.91;;;30.28;30.11
25759;BME280;13604;52.496;13.456;2022-07-05T09:40:53;101648.13;;;31.17;29.13
25759;BME280;13604;52.496;13.456;2022-07-05T09:43:19;101674.81;;;31.19;27.89
25759;BME280;13604;52.496;13.456;2022-07-05T09:46:04;101660.97;;;31.35;28.64
25759;BME280;13604;52.496;13.456;2022-07-05T09:48:31;101663.38;;;30.70;28.09
25759;BME280;13604;52.496;13.456;2022-07-05T09:51:10;101661.88;;;30.55;28.33
25759;BME280;13604;52.496;13.456;2022-07-05T09:53:50;101661.41;;;30.51;28.60
25759;BME280;13604;52.496;13.456;2022-07-05T09:56:16;101655.50;;;30.75;28.41
25759;BME280;13604;52.496;13.456;2022-07-05T09:58:43;101660.72;;;29.95;29.19
25759;BME280;13604;52.496;13.456;2022-07-05T10:01:29;101670.16;;;29.84;29.98
25759;BME280;13604;52.496;13.456;2022-07-05T10:03:59;101667.16;;;30.41;28.62
25759;BME280;13604;52.496;13.456;2022-07-05T10:06:31;101659.47;;;31.06;27.72
25759;BME280;13604;52.496;13.456;2022-07-05T10:08:57;101656.38;;;31.29;27.58
25759;BME280;13604;52.496;13.456;2022-07-05T10:11:23;101669.56;;;32.03;26.78
25759;BME280;13604;52.496;13.456;2022-07-05T10:13:52;101660.91;;;31.74;26.87
25759;BME280;13604;52.496;13.456;2022-07-05T10:16:20;101664.44;;;30.89;27.95
25759;BME280;13604;52.496;13.456;2022-07-05T10:18:47;101661.78;;;28.74;30.84
25759;BME280;13604;52.496;13.456;2022-07-05T10:21:16;101668.16;;;29.09;31.15
25759;BME280;13604;52.496;13.456;2022-07-05T10:23:44;101664.88;;;28.71;32.58
25759;BME280;13604;52.496;13.456;2022-07-05T10:26:11;101671.16;;;28.28;31.89
25759;BME280;13604;52.496;13.456;2022-07-05T10:28:39;101676.84;;;27.28;32.98
25759;BME280;13604;52.496;13.456;2022-07-05T10:31:05;101673.66;;;27.47;32.65
25759;BME280;13604;52.496;13.456;2022-07-05T10:33:32;101662.84;;;28.22;32.13
25759;BME280;13604;52.496;13.456;2022-07-05T10:35:58;101669.75;;;28.46;31.71
25759;BME280;13604;52.496;13.456;2022-07-05T10:38:24;101674.19;;;27.28;32.88
25759;BME280;13604;52.496;13.456;2022-07-05T10:40:54;101677.88;;;25.95;35.61
25759;BME280;13604;52.496;13.456;2022-07-05T10:43:24;101672.78;;;26.87;34.46
25759;BME280;13604;52.496;13.456;2022-07-05T10:45:51;101658.22;;;27.35;33.45
25759;BME280;13604;52.496;13.456;2022-07-05T10:48:26;101667.28;;;28.66;31.79
25759;BME280;13604;52.496;13.456;2022-07-05T10:58:42;101658.06;;;28.54;32.40
25759;BME280;13604;52.496;13.456;2022-07-05T11:03:52;101652.81;;;29.52;29.94
25759;BME280;13604;52.496;13.456;2022-07-05T11:06:24;101646.44;;;30.29;29.79
25759;BME280;13604;52.496;13.456;2022-07-05T11:11:32;101664.03;;;28.05;32.09
25759;BME280;13604;52.496;13.456;2022-07-05T11:13:59;101657.63;;;26.79;33.68
25759;BME280;13604;52.496;13.456;2022-07-05T11:16:33;101652.38;;;27.16;34.94
25759;BME280;13604;52.496;13.456;2022-07-05T11:19:09;101661.69;;;27.21;34.02
25759;BME280;13604;52.496;13.456;2022-07-05T11:21:37;101652.59;;;27.67;33.43
25759;BME280;13604;52.496;13.456;2022-07-05T11:24:30;101647.47;;;29.03;31.89
25759;BME280;13604;52.496;13.456;2022-07-05T11:27:00;101652.22;;;28.00;32.32
25759;BME280;13604;52.496;13.456;2022-07-05T11:29:49;101663.56;;;26.66;35.16
25759;BME280;13604;52.496;13.456;2022-07-05T11:32:22;101663.91;;;26.32;35.25
25759;BME280;13604;52.496;13.456;2022-07-05T11:34:50;101655.00;;;28.21;32.89
25759;BME280;13604;52.496;13.456;2022-07-05T11:39:41;101654.50;;;31.56;27.31
25759;BME280;13604;52.496;13.456;2022-07-05T11:42:08;101655.25;;;30.03;28.55
25759;BME280;13604;52.496;13.456;2022-07-05T11:44:34;101651.72;;;28.40;31.68
25759;BME280;13604;52.496;13.456;2022-07-05T11:47:01;101650.78;;;30.23;29.93
25759;BME280;13604;52.496;13.456;2022-07-05T11:49:26;101651.06;;;32.13;25.43
25759;BME280;13604;52.496;13.456;2022-07-05T11:52:01;101638.09;;;33.36;24.54
25759;BME280;13604;52.496;13.456;2022-07-05T11:54:29;101638.13;;;33.47;24.59
25759;BME280;13604;52.496;13.456;2022-07-05T11:56:54;101651.22;;;31.47;25.97
25759;BME280;13604;52.496;13.456;2022-07-05T11:59:22;101633.09;;;30.49;27.58
25759;BME280;13604;52.496;13.456;2022-07-05T12:01:48;101636.06;;;31.72;25.99
25759;BME280;13604;52.496;13.456;2022-07-05T12:04:28;101629.72;;;33.37;23.48
25759;BME280;13604;52.496;13.456;2022-07-05T12:06:55;101629.44;;;32.33;24.91
25759;BME280;13604;52.496;13.456;2022-07-05T12:09:29;101620.31;;;32.97;23.63
25759;BME280;13604;52.496;13.456;2022-07-05T12:12:17;101617.91;;;33.56;23.76
25759;BME280;13604;52.496;13.456;2022-07-05T12:15:02;101621.59;;;32.25;24.09
25759;BME280;13604;52.496;13.456;2022-07-05T12:17:27;101617.97;;;33.32;23.92
25759;BME280;13604;52.496;13.456;2022-07-05T12:19:53;101623.00;;;31.63;25.25
25759;BME280;13604;52.496;13.456;2022-07-05T12:22:33;101619.78;;;29.24;28.03
25759;BME280;13604;52.496;13.456;2022-07-05T12:25:00;101618.25;;;28.72;29.73
25759;BME280;13604;52.496;13.456;2022-07-05T12:27:30;101617.09;;;29.24;29.61
25759;BME280;13604;52.496;13.456;2022-07-05T12:29:56;101610.34;;;28.28;30.27
25759;BME280;13604;52.496;13.456;2022-07-05T12:32:22;101621.00;;;27.77;31.46
25759;BME280;13604;52.496;13.456;2022-07-05T12:34:47;101609.75;;;27.15;31.84
25759;BME280;13604;52.496;13.456;2022-07-05T12:37:22;101613.00;;;29.56;29.09
25759;BME280;13604;52.496;13.456;2022-07-05T12:39:49;101611.41;;;31.49;26.03
25759;BME280;13604;52.496;13.456;2022-07-05T12:42:37;101596.09;;;34.24;22.97
25759;BME280;13604;52.496;13.456;2022-07-05T12:45:13;101591.81;;;36.22;20.53
25759;BME280;13604;52.496;13.456;2022-07-05T12:47:49;101593.66;;;38.47;18.67
25759;BME280;13604;52.496;13.456;2022-07-05T12:50:15;101590.81;;;37.62;18.43
25759;BME280;13604;52.496;13.456;2022-07-05T12:53:06;101598.66;;;34.79;21.37
25759;BME280;13604;52.496;13.456;2022-07-05T12:56:04;101581.00;;;33.87;23.01
25759;BME280;13604;52.496;13.456;2022-07-05T12:58:50;101587.16;;;33.57;22.62